createdAt,value
2019-05-13T00:00:24.867Z,1021.23
2019-05-13T00:01:24.862Z,1021.23
2019-05-13T00:02:24.873Z,1021.18
2019-05-13T00:03:24.836Z,1021.27
2019-05-13T00:04:24.828Z,1021.16
2019-05-13T00:05:24.813Z,1021.21
2019-05-13T00:06:24.805Z,1021.19
2019-05-13T00:07:24.815Z,1021.16
2019-05-13T00:08:25.107Z,1021.21
2019-05-13T00:09:24.789Z,1021.19
2019-05-13T00:10:24.760Z,1021.18
2019-05-13T00:11:24.753Z,1021.15
2019-05-13T00:12:24.766Z,1021.11
2019-05-13T00:13:24.726Z,1021.15
2019-05-13T00:14:24.714Z,1021.20
2019-05-13T00:15:24.705Z,1021.13
2019-05-13T00:16:24.701Z,1021.16
2019-05-13T00:17:24.709Z,1021.17
2019-05-13T00:18:24.675Z,1021.17
2019-05-13T00:19:24.662Z,1021.19
2019-05-13T00:20:24.650Z,1021.28
2019-05-13T00:21:24.642Z,1021.27
2019-05-13T00:22:24.660Z,1021.34
2019-05-13T00:23:24.626Z,1021.29
2019-05-13T00:24:24.612Z,1021.33
2019-05-13T00:25:24.602Z,1021.27
2019-05-13T00:26:24.593Z,1021.30
2019-05-13T00:27:24.609Z,1021.33
2019-05-13T00:28:24.570Z,1021.33
2019-05-13T00:29:24.561Z,1021.27
2019-05-13T00:30:24.551Z,1021.33
2019-05-13T00:31:24.559Z,1021.30
2019-05-13T00:32:24.553Z,1021.35
2019-05-13T00:33:24.589Z,1021.35
2019-05-13T00:34:24.537Z,1021.29
2019-05-13T00:35:24.502Z,1021.39
2019-05-13T00:36:24.485Z,1021.32
2019-05-13T00:37:24.585Z,1021.30
2019-05-13T00:38:24.728Z,1021.41
2019-05-13T00:39:24.731Z,1021.36
2019-05-13T00:40:24.441Z,1021.44
2019-05-13T00:41:24.584Z,1021.40
2019-05-13T00:42:24.693Z,1021.42
2019-05-13T00:43:24.636Z,1021.41
2019-05-13T00:44:24.550Z,1021.40
2019-05-13T00:45:24.630Z,1021.42
2019-05-13T00:46:24.382Z,1021.47
2019-05-13T00:47:24.404Z,1021.40
2019-05-13T00:48:24.354Z,1021.45
2019-05-13T00:49:24.356Z,1021.45
2019-05-13T00:50:24.344Z,1021.38
2019-05-13T00:51:24.497Z,1021.37
2019-05-13T00:52:24.355Z,1021.34
2019-05-13T00:53:24.325Z,1021.31
2019-05-13T00:54:24.294Z,1021.38
2019-05-13T00:55:24.294Z,1021.34
2019-05-13T00:56:24.280Z,1021.33
2019-05-13T00:57:24.305Z,1021.30
2019-05-13T00:58:24.428Z,1021.31
2019-05-13T00:59:24.410Z,1021.28
2019-05-13T01:00:24.465Z,1021.33
2019-05-13T01:01:24.416Z,1021.34
2019-05-13T01:02:24.421Z,1021.34
2019-05-13T01:03:27.781Z,1021.36
2019-05-13T01:04:24.197Z,1021.29
2019-05-13T01:05:24.187Z,1021.40
2019-05-13T01:06:24.171Z,1021.35
2019-05-13T01:07:28.532Z,1021.32
2019-05-13T01:08:24.153Z,1021.31
2019-05-13T01:09:24.145Z,1021.26
2019-05-13T01:10:24.133Z,1021.33
2019-05-13T01:11:24.119Z,1021.41
2019-05-13T01:12:24.142Z,1021.31
2019-05-13T01:13:24.100Z,1021.31
2019-05-13T01:14:24.087Z,1021.38
2019-05-13T01:15:24.762Z,1021.40
2019-05-13T01:16:24.091Z,1021.31
2019-05-13T01:17:24.056Z,1021.34
2019-05-13T01:18:24.065Z,1021.35
2019-05-13T01:19:24.032Z,1021.41
2019-05-13T01:20:24.026Z,1021.35
2019-05-13T01:21:24.124Z,1021.35
2019-05-13T01:22:24.080Z,1021.44
2019-05-13T01:23:24.238Z,1021.30
2019-05-13T01:24:24.501Z,1021.33
2019-05-13T01:25:24.394Z,1021.37
2019-05-13T01:26:23.962Z,1021.32
2019-05-13T01:27:24.061Z,1021.33
2019-05-13T01:28:24.122Z,1021.40
2019-05-13T01:29:24.013Z,1021.37
2019-05-13T01:30:23.936Z,1021.41
2019-05-13T01:31:24.105Z,1021.36
2019-05-13T01:32:24.047Z,1021.40
2019-05-13T01:33:23.909Z,1021.34
2019-05-13T01:34:23.875Z,1021.38
2019-05-13T01:35:23.861Z,1021.36
2019-05-13T01:36:23.855Z,1021.29
2019-05-13T01:37:38.806Z,1021.38
2019-05-13T01:38:24.856Z,1021.35
2019-05-13T01:39:24.432Z,1021.29
2019-05-13T01:40:24.048Z,1021.36
2019-05-13T01:41:24.097Z,1021.31
2019-05-13T01:42:24.136Z,1021.35
2019-05-13T01:43:24.457Z,1021.37
2019-05-13T01:44:24.424Z,1021.33
2019-05-13T01:45:24.163Z,1021.31
2019-05-13T01:46:24.186Z,1021.35
2019-05-13T01:47:24.187Z,1021.39
2019-05-13T01:48:24.196Z,1021.35
2019-05-13T01:49:24.183Z,1021.34
2019-05-13T01:50:24.129Z,1021.29
2019-05-13T01:51:24.043Z,1021.31
2019-05-13T01:52:23.901Z,1021.31
2019-05-13T01:53:24.411Z,1021.36
2019-05-13T01:54:24.635Z,1021.26
2019-05-13T01:55:24.469Z,1021.36
2019-05-13T01:56:23.706Z,1021.25
2019-05-13T01:57:23.895Z,1021.30
2019-05-13T01:58:23.822Z,1021.34
2019-05-13T01:59:24.019Z,1021.30
2019-05-13T02:00:24.209Z,1021.32
2019-05-13T02:01:24.131Z,1021.23
2019-05-13T02:02:24.257Z,1021.27
2019-05-13T02:03:24.634Z,1021.34
2019-05-13T02:04:24.479Z,1021.29
2019-05-13T02:05:24.201Z,1021.26
2019-05-13T02:06:24.122Z,1021.29
2019-05-13T02:07:24.422Z,1021.23
2019-05-13T02:08:24.520Z,1021.24
2019-05-13T02:09:24.483Z,1021.26
2019-05-13T02:10:24.579Z,1021.30
2019-05-13T02:11:23.880Z,1021.25
2019-05-13T02:12:24.049Z,1021.26
2019-05-13T02:13:24.386Z,1021.29
2019-05-13T02:14:23.756Z,1021.25
2019-05-13T02:15:23.441Z,1021.34
2019-05-13T02:16:24.372Z,1021.34
2019-05-13T02:17:23.622Z,1021.24
2019-05-13T02:18:24.440Z,1021.33
2019-05-13T02:19:24.445Z,1021.22
2019-05-13T02:20:24.780Z,1021.20
2019-05-13T02:21:24.118Z,1021.20
2019-05-13T02:22:24.767Z,1021.19
2019-05-13T02:23:24.092Z,1021.19
2019-05-13T02:24:23.722Z,1021.32
2019-05-13T02:25:23.765Z,1021.26
2019-05-13T02:26:23.997Z,1021.33
2019-05-13T02:27:24.921Z,1021.39
2019-05-13T02:28:24.805Z,1021.38
2019-05-13T02:29:24.468Z,1021.46
2019-05-13T02:30:26.591Z,1021.47
2019-05-13T02:31:39.622Z,1021.44
2019-05-13T02:32:24.260Z,1021.52
2019-05-13T02:33:23.329Z,1021.53
2019-05-13T02:34:23.481Z,1021.49
2019-05-13T02:35:23.331Z,1021.56
2019-05-13T02:36:23.257Z,1021.55
2019-05-13T02:37:23.456Z,1021.59
2019-05-13T02:38:29.454Z,1021.59
2019-05-13T02:39:24.196Z,1021.52
2019-05-13T02:40:23.182Z,1021.57
2019-05-13T02:41:23.172Z,1021.60
2019-05-13T02:42:23.168Z,1021.53
2019-05-13T02:43:24.286Z,1021.56
2019-05-13T02:44:23.168Z,1021.55
2019-05-13T02:45:23.137Z,1021.59
2019-05-13T02:46:23.118Z,1021.51
2019-05-13T02:47:33.084Z,1021.57
2019-05-13T02:48:24.062Z,1021.61
2019-05-13T02:49:23.402Z,1021.59
2019-05-13T02:50:23.074Z,1021.49
2019-05-13T02:51:23.296Z,1021.54
2019-05-13T02:52:23.060Z,1021.49
2019-05-13T02:53:23.979Z,1021.48
2019-05-13T02:54:23.133Z,1021.45
2019-05-13T02:55:23.018Z,1021.47
2019-05-13T02:56:23.025Z,1021.51
2019-05-13T02:57:23.467Z,1021.50
2019-05-13T02:58:25.296Z,1021.46
2019-05-13T02:59:23.081Z,1021.56
2019-05-13T03:00:23.574Z,1021.53
2019-05-13T03:01:22.956Z,1021.57
2019-05-13T03:02:22.946Z,1021.59
2019-05-13T03:03:23.661Z,1021.53
2019-05-13T03:04:23.466Z,1021.58
2019-05-13T03:05:22.916Z,1021.56
2019-05-13T03:06:22.912Z,1021.59
2019-05-13T03:07:23.495Z,1021.67
2019-05-13T03:08:39.478Z,1021.60
2019-05-13T03:09:23.896Z,1021.62
2019-05-13T03:10:22.859Z,1021.63
2019-05-13T03:11:23.029Z,1021.67
2019-05-13T03:12:23.274Z,1021.59
2019-05-13T03:13:23.569Z,1021.60
2019-05-13T03:14:23.839Z,1021.67
2019-05-13T03:15:23.174Z,1021.68
2019-05-13T03:16:23.240Z,1021.66
2019-05-13T03:17:22.794Z,1021.63
2019-05-13T03:18:22.885Z,1021.68
2019-05-13T03:19:22.916Z,1021.68
2019-05-13T03:20:23.328Z,1021.68
2019-05-13T03:21:23.349Z,1021.68
2019-05-13T03:22:22.810Z,1021.75
2019-05-13T03:23:23.095Z,1021.71
2019-05-13T03:24:23.198Z,1021.72
2019-05-13T03:25:23.186Z,1021.67
2019-05-13T03:26:23.622Z,1021.71
2019-05-13T03:27:25.117Z,1021.68
2019-05-13T03:28:22.755Z,1021.73
2019-05-13T03:29:22.685Z,1021.68
2019-05-13T03:30:25.100Z,1021.75
2019-05-13T03:31:26.399Z,1021.73
2019-05-13T03:32:27.015Z,1021.65
2019-05-13T03:33:27.922Z,1021.74
2019-05-13T03:34:26.172Z,1021.76
2019-05-13T03:35:26.491Z,1021.71
2019-05-13T03:36:26.086Z,1021.72
2019-05-13T03:37:26.367Z,1021.70
2019-05-13T03:38:22.732Z,1021.77
2019-05-13T03:39:22.669Z,1021.81
2019-05-13T03:40:23.353Z,1021.76
2019-05-13T03:41:22.963Z,1021.83
2019-05-13T03:42:22.736Z,1021.83
2019-05-13T03:43:23.073Z,1021.88
2019-05-13T03:44:23.672Z,1021.83
2019-05-13T03:45:22.493Z,1021.87
2019-05-13T03:46:22.997Z,1021.93
2019-05-13T03:47:23.255Z,1021.90
2019-05-13T03:48:23.585Z,1021.86
2019-05-13T03:49:23.321Z,1021.81
2019-05-13T03:50:22.941Z,1021.87
2019-05-13T03:51:22.492Z,1021.88
2019-05-13T03:52:22.774Z,1021.95
2019-05-13T03:53:23.405Z,1021.93
2019-05-13T03:54:22.887Z,1021.91
2019-05-13T03:55:23.290Z,1021.98
2019-05-13T03:56:23.596Z,1022.01
2019-05-13T03:57:23.246Z,1021.92
2019-05-13T03:58:23.870Z,1022.02
2019-05-13T03:59:22.760Z,1022.01
2019-05-13T04:00:23.667Z,1021.91
2019-05-13T04:01:22.606Z,1021.94
2019-05-13T04:02:22.848Z,1022.04
2019-05-13T04:03:22.892Z,1021.94
2019-05-13T04:04:23.337Z,1021.92
2019-05-13T04:05:23.369Z,1021.98
2019-05-13T04:06:23.184Z,1021.99
2019-05-13T04:07:23.788Z,1022.00
2019-05-13T04:08:22.987Z,1021.99
2019-05-13T04:09:31.036Z,1021.94
2019-05-13T04:10:23.513Z,1021.91
2019-05-13T04:11:22.800Z,1022.00
2019-05-13T04:12:22.952Z,1021.93
2019-05-13T04:13:23.269Z,1021.95
2019-05-13T04:14:23.216Z,1021.97
2019-05-13T04:15:23.459Z,1021.96
2019-05-13T04:16:23.752Z,1021.95
2019-05-13T04:17:24.288Z,1021.99
2019-05-13T04:18:23.353Z,1021.99
2019-05-13T04:19:23.398Z,1022.02
2019-05-13T04:20:23.368Z,1022.03
2019-05-13T04:21:22.938Z,1022.07
2019-05-13T04:22:23.046Z,1022.09
2019-05-13T04:23:23.305Z,1021.96
2019-05-13T04:24:23.098Z,1022.01
2019-05-13T04:25:23.226Z,1022.05
2019-05-13T04:26:23.565Z,1021.96
2019-05-13T04:27:23.297Z,1021.99
2019-05-13T04:28:22.361Z,1022.09
2019-05-13T04:29:23.385Z,1022.08
2019-05-13T04:30:22.842Z,1022.08
2019-05-13T04:31:22.970Z,1022.01
2019-05-13T04:32:22.908Z,1021.96
2019-05-13T04:33:23.186Z,1021.97
2019-05-13T04:34:22.911Z,1022.07
2019-05-13T04:35:23.466Z,1022.03
2019-05-13T04:36:23.477Z,1022.06
2019-05-13T04:37:22.469Z,1022.13
2019-05-13T04:38:22.897Z,1022.15
2019-05-13T04:39:40.284Z,1022.10
2019-05-13T04:40:23.755Z,1022.06
2019-05-13T04:41:23.082Z,1022.03
2019-05-13T04:42:23.157Z,1022.16
2019-05-13T04:43:23.508Z,1022.16
2019-05-13T04:44:24.061Z,1022.17
2019-05-13T04:45:23.934Z,1022.14
2019-05-13T04:46:22.958Z,1022.09
2019-05-13T04:47:22.869Z,1022.13
2019-05-13T04:48:22.928Z,1022.18
2019-05-13T04:49:23.237Z,1022.11
2019-05-13T04:50:22.752Z,1022.14
2019-05-13T04:51:22.811Z,1022.16
2019-05-13T04:52:22.499Z,1022.16
2019-05-13T04:53:22.886Z,1022.20
2019-05-13T04:54:22.690Z,1022.22
2019-05-13T04:55:23.025Z,1022.20
2019-05-13T04:56:22.526Z,1022.26
2019-05-13T04:57:22.712Z,1022.29
2019-05-13T04:58:23.569Z,1022.29
2019-05-13T04:59:22.738Z,1022.26
2019-05-13T05:00:23.347Z,1022.30
2019-05-13T05:01:23.686Z,1022.30
2019-05-13T05:02:22.508Z,1022.30
2019-05-13T05:03:32.646Z,1022.21
2019-05-13T05:04:30.710Z,1022.27
2019-05-13T05:05:22.846Z,1022.33
2019-05-13T05:06:22.647Z,1022.30
2019-05-13T05:07:22.295Z,1022.27
2019-05-13T05:08:22.464Z,1022.26
2019-05-13T05:09:22.528Z,1022.23
2019-05-13T05:10:33.683Z,1022.27
2019-05-13T05:11:22.602Z,1022.26
2019-05-13T05:12:23.068Z,1022.29
2019-05-13T05:13:22.216Z,1022.31
2019-05-13T05:14:22.464Z,1022.31
2019-05-13T05:15:23.371Z,1022.32
2019-05-13T05:16:22.022Z,1022.33
2019-05-13T05:17:22.603Z,1022.33
2019-05-13T05:18:22.260Z,1022.44
2019-05-13T05:19:23.633Z,1022.44
2019-05-13T05:20:23.093Z,1022.42
2019-05-13T05:21:21.842Z,1022.45
2019-05-13T05:22:22.135Z,1022.41
2019-05-13T05:23:21.622Z,1022.45
2019-05-13T05:24:22.226Z,1022.43
2019-05-13T05:25:22.046Z,1022.48
2019-05-13T05:26:22.072Z,1022.45
2019-05-13T05:27:21.465Z,1022.53
2019-05-13T05:28:21.834Z,1022.53
2019-05-13T05:29:21.790Z,1022.55
2019-05-13T05:30:21.870Z,1022.57
2019-05-13T05:31:23.124Z,1022.61
2019-05-13T05:32:21.594Z,1022.58
2019-05-13T05:33:21.524Z,1022.57
2019-05-13T05:34:21.957Z,1022.52
2019-05-13T05:35:22.348Z,1022.55
2019-05-13T05:36:21.863Z,1022.55
2019-05-13T05:37:22.296Z,1022.50
2019-05-13T05:38:25.663Z,1022.52
2019-05-13T05:39:22.612Z,1022.57
2019-05-13T05:40:31.316Z,1022.57
2019-05-13T05:41:22.291Z,1022.63
2019-05-13T05:42:21.767Z,1022.69
2019-05-13T05:43:22.320Z,1022.62
2019-05-13T05:44:21.479Z,1022.64
2019-05-13T05:45:22.001Z,1022.64
2019-05-13T05:46:22.054Z,1022.56
2019-05-13T05:47:21.368Z,1022.63
2019-05-13T05:48:22.156Z,1022.55
2019-05-13T05:49:21.423Z,1022.61
2019-05-13T05:50:22.980Z,1022.64
2019-05-13T05:51:22.129Z,1022.57
2019-05-13T05:52:21.405Z,1022.57
2019-05-13T05:53:21.879Z,1022.65
2019-05-13T05:54:21.837Z,1022.60
2019-05-13T05:55:21.412Z,1022.54
2019-05-13T05:56:21.983Z,1022.69
2019-05-13T05:57:22.449Z,1022.61
2019-05-13T05:58:22.934Z,1022.53
2019-05-13T05:59:21.772Z,1022.51
2019-05-13T06:00:22.029Z,1022.55
2019-05-13T06:01:23.357Z,1022.54
2019-05-13T06:02:23.035Z,1022.58
2019-05-13T06:03:21.796Z,1022.56
2019-05-13T06:04:22.099Z,1022.45
2019-05-13T06:05:21.423Z,1022.54
2019-05-13T06:06:22.718Z,1022.53
2019-05-13T06:07:21.986Z,1022.58
2019-05-13T06:08:22.226Z,1022.60
2019-05-13T06:09:21.416Z,1022.52
2019-05-13T06:10:22.576Z,1022.53
2019-05-13T06:11:22.247Z,1022.52
2019-05-13T06:12:21.510Z,1022.51
2019-05-13T06:13:21.510Z,1022.60
2019-05-13T06:14:21.926Z,1022.47
2019-05-13T06:15:22.552Z,1022.56
2019-05-13T06:16:21.821Z,1022.45
2019-05-13T06:17:21.857Z,1022.59
2019-05-13T06:18:22.181Z,1022.51
2019-05-13T06:19:22.484Z,1022.57
2019-05-13T06:20:21.213Z,1022.56
2019-05-13T06:21:21.472Z,1022.47
2019-05-13T06:22:21.658Z,1022.53
2019-05-13T06:23:22.167Z,1022.60
2019-05-13T06:24:24.534Z,1022.63
2019-05-13T06:25:23.426Z,1022.53
2019-05-13T06:26:23.640Z,1022.56
2019-05-13T06:27:21.388Z,1022.47
2019-05-13T06:28:21.716Z,1022.56
2019-05-13T06:29:22.215Z,1022.51
2019-05-13T06:30:21.767Z,1022.44
2019-05-13T06:31:21.596Z,1022.54
2019-05-13T06:32:25.401Z,1022.57
2019-05-13T06:33:21.735Z,1022.55
2019-05-13T06:34:21.527Z,1022.52
2019-05-13T06:35:21.860Z,1022.58
2019-05-13T06:36:22.138Z,1022.47
2019-05-13T06:37:21.717Z,1022.56
2019-05-13T06:38:22.566Z,1022.53
2019-05-13T06:39:22.247Z,1022.54
2019-05-13T06:40:21.427Z,1022.70
2019-05-13T06:41:21.979Z,1022.52
2019-05-13T06:42:22.249Z,1022.64
2019-05-13T06:43:21.090Z,1022.64
2019-05-13T06:44:21.380Z,1022.63
2019-05-13T06:45:21.672Z,1022.59
2019-05-13T06:46:21.875Z,1022.56
2019-05-13T06:47:21.909Z,1022.61
2019-05-13T06:48:22.957Z,1022.58
2019-05-13T06:49:21.713Z,1022.66
2019-05-13T06:50:21.831Z,1022.69
2019-05-13T06:51:22.208Z,1022.63
2019-05-13T06:52:21.240Z,1022.57
2019-05-13T06:53:21.775Z,1022.66
2019-05-13T06:54:22.005Z,1022.60
2019-05-13T06:55:21.268Z,1022.66
2019-05-13T06:56:21.828Z,1022.65
2019-05-13T06:57:21.966Z,1022.67
2019-05-13T06:58:22.234Z,1022.64
2019-05-13T06:59:22.373Z,1022.64
2019-05-13T07:00:21.550Z,1022.67
2019-05-13T07:01:21.753Z,1022.75
2019-05-13T07:02:21.569Z,1022.74
2019-05-13T07:03:21.963Z,1022.84
2019-05-13T07:04:21.888Z,1022.80
2019-05-13T07:05:22.669Z,1022.77
2019-05-13T07:06:21.686Z,1022.70
2019-05-13T07:07:21.947Z,1022.82
2019-05-13T07:08:22.169Z,1022.81
2019-05-13T07:09:21.574Z,1022.78
2019-05-13T07:10:21.718Z,1022.78
2019-05-13T07:11:22.335Z,1022.81
2019-05-13T07:12:21.889Z,1022.76
2019-05-13T07:13:21.822Z,1022.76
2019-05-13T07:14:21.835Z,1022.69
2019-05-13T07:15:22.401Z,1022.72
2019-05-13T07:16:22.342Z,1022.75
2019-05-13T07:17:22.293Z,1022.73
2019-05-13T07:18:21.904Z,1022.71
2019-05-13T07:19:20.230Z,1022.75
2019-05-13T07:20:22.715Z,1022.73
2019-05-13T07:21:21.722Z,1022.76
2019-05-13T07:22:23.022Z,1022.68
2019-05-13T07:23:22.395Z,1022.68
2019-05-13T07:24:21.406Z,1022.71
2019-05-13T07:25:22.182Z,1022.67
2019-05-13T07:26:22.112Z,1022.67
2019-05-13T07:27:22.728Z,1022.71
2019-05-13T07:28:21.912Z,1022.78
2019-05-13T07:29:20.628Z,1022.73
2019-05-13T07:30:21.370Z,1022.76
2019-05-13T07:31:21.813Z,1022.75
2019-05-13T07:32:22.088Z,1022.72
2019-05-13T07:33:21.336Z,1022.77
2019-05-13T07:34:24.146Z,1022.79
2019-05-13T07:35:22.812Z,1022.70
2019-05-13T07:36:22.401Z,1022.73
2019-05-13T07:37:21.874Z,1022.73
2019-05-13T07:38:22.238Z,1022.76
2019-05-13T07:39:22.327Z,1022.81
2019-05-13T07:40:22.216Z,1022.66
2019-05-13T07:41:34.772Z,1022.85
2019-05-13T07:42:22.249Z,1022.73
2019-05-13T07:43:21.503Z,1022.78
2019-05-13T07:44:22.169Z,1022.77
2019-05-13T07:45:21.291Z,1022.78
2019-05-13T07:46:21.788Z,1022.76
2019-05-13T07:47:22.047Z,1022.85
2019-05-13T07:48:26.741Z,1022.79
2019-05-13T07:49:22.466Z,1022.75
2019-05-13T07:50:21.799Z,1022.83
2019-05-13T07:51:22.011Z,1022.79
2019-05-13T07:52:22.519Z,1022.76
2019-05-13T07:53:22.011Z,1022.76
2019-05-13T07:54:22.006Z,1022.67
2019-05-13T07:55:22.155Z,1022.73
2019-05-13T07:56:21.814Z,1022.65
2019-05-13T07:57:21.509Z,1022.75
2019-05-13T07:58:22.681Z,1022.75
2019-05-13T07:59:21.104Z,1022.77
2019-05-13T08:00:21.727Z,1022.71
2019-05-13T08:01:22.082Z,1022.79
2019-05-13T08:02:21.752Z,1022.78
2019-05-13T08:03:21.403Z,1022.74
2019-05-13T08:04:25.617Z,1022.74
2019-05-13T08:05:22.402Z,1022.63
2019-05-13T08:06:21.991Z,1022.71
2019-05-13T08:07:22.396Z,1022.72
2019-05-13T08:08:21.899Z,1022.80
2019-05-13T08:09:21.608Z,1022.68
2019-05-13T08:10:21.921Z,1022.68
2019-05-13T08:11:22.182Z,1022.72
2019-05-13T08:12:21.596Z,1022.69
2019-05-13T08:13:22.271Z,1022.68
2019-05-13T08:14:21.756Z,1022.66
2019-05-13T08:15:22.169Z,1022.69
2019-05-13T08:16:22.333Z,1022.77
2019-05-13T08:17:22.259Z,1022.78
2019-05-13T08:18:22.042Z,1022.76
2019-05-13T08:19:21.765Z,1022.72
2019-05-13T08:20:21.992Z,1022.72
2019-05-13T08:21:21.490Z,1022.75
2019-05-13T08:22:22.127Z,1022.70
2019-05-13T08:23:21.656Z,1022.81
2019-05-13T08:24:22.447Z,1022.79
2019-05-13T08:25:19.527Z,1022.87
2019-05-13T08:26:21.683Z,1022.70
2019-05-13T08:27:24.048Z,1022.74
2019-05-13T08:28:22.525Z,1022.77
2019-05-13T08:29:21.505Z,1022.81
2019-05-13T08:30:19.483Z,1022.73
2019-05-13T08:31:21.644Z,1022.87
2019-05-13T08:32:21.930Z,1022.86
2019-05-13T08:33:19.472Z,1022.88
2019-05-13T08:34:22.392Z,1022.82
2019-05-13T08:35:19.437Z,1022.80
2019-05-13T08:36:19.482Z,1022.82
2019-05-13T08:37:21.543Z,1022.79
2019-05-13T08:38:19.434Z,1022.81
2019-05-13T08:39:21.639Z,1022.84
2019-05-13T08:40:20.329Z,1022.89
2019-05-13T08:41:23.352Z,1022.81
2019-05-13T08:42:22.588Z,1022.79
2019-05-13T08:43:19.367Z,1022.82
2019-05-13T08:44:21.626Z,1022.82
2019-05-13T08:45:19.319Z,1022.80
2019-05-13T08:46:21.691Z,1022.80
2019-05-13T08:48:16.044Z,1022.81
2019-05-13T08:49:16.007Z,1022.87
2019-05-13T08:50:15.988Z,1022.83
2019-05-13T08:51:15.983Z,1022.77
2019-05-13T08:52:15.971Z,1022.68
2019-05-13T08:53:15.995Z,1022.80
2019-05-13T08:54:15.952Z,1022.78
2019-05-13T08:55:16.352Z,1022.84
2019-05-13T08:56:15.930Z,1022.80
2019-05-13T08:57:15.915Z,1022.89
2019-05-13T08:58:15.940Z,1022.80
2019-05-13T08:59:15.935Z,1022.88
2019-05-13T09:00:15.995Z,1022.87
2019-05-13T09:01:15.876Z,1022.82
2019-05-13T09:02:15.872Z,1022.86
2019-05-13T09:03:15.975Z,1022.84
2019-05-13T09:04:15.987Z,1022.89
2019-05-13T09:05:15.833Z,1022.87
2019-05-13T09:06:15.825Z,1022.85
2019-05-13T09:07:15.815Z,1022.79
2019-05-13T09:08:15.833Z,1022.92
2019-05-13T09:09:15.790Z,1022.85
2019-05-13T09:10:15.785Z,1022.85
2019-05-13T09:11:15.783Z,1022.84
2019-05-13T09:12:28.567Z,1022.77
2019-05-13T09:13:16.912Z,1022.87
2019-05-13T09:14:15.748Z,1022.84
2019-05-13T09:15:15.727Z,1022.85
2019-05-13T09:16:15.714Z,1022.80
2019-05-13T09:17:15.710Z,1022.82
2019-05-13T09:18:15.725Z,1022.84
2019-05-13T09:19:16.379Z,1022.86
2019-05-13T09:20:15.675Z,1022.76
2019-05-13T09:21:15.668Z,1022.75
2019-05-13T09:22:15.661Z,1022.70
2019-05-13T09:23:15.681Z,1022.75
2019-05-13T09:24:24.641Z,1022.72
2019-05-13T09:25:16.622Z,1022.81
2019-05-13T09:26:15.623Z,1022.80
2019-05-13T09:27:15.604Z,1022.77
2019-05-13T09:28:15.624Z,1022.70
2019-05-13T09:29:15.589Z,1022.76
2019-05-13T09:30:15.574Z,1022.79
2019-05-13T09:31:15.565Z,1022.82
2019-05-13T09:32:15.564Z,1022.84
2019-05-13T09:33:15.566Z,1022.85
2019-05-13T09:34:15.531Z,1022.74
2019-05-13T09:35:15.528Z,1022.69
2019-05-13T09:36:15.512Z,1022.70
2019-05-13T09:37:15.501Z,1022.75
2019-05-13T09:38:15.527Z,1022.85
2019-05-13T09:39:15.484Z,1022.78
2019-05-13T09:40:15.475Z,1022.74
2019-05-13T09:41:15.469Z,1022.81
2019-05-13T09:42:15.473Z,1022.72
2019-05-13T09:43:15.446Z,1022.80
2019-05-13T09:44:15.461Z,1022.88
2019-05-13T09:45:15.414Z,1022.78
2019-05-13T09:46:15.407Z,1022.87
2019-05-13T09:47:15.403Z,1022.64
2019-05-13T09:48:15.386Z,1022.80
2019-05-13T09:49:19.705Z,1022.63
2019-05-13T09:50:28.617Z,1022.66
2019-05-13T09:51:16.355Z,1022.71
2019-05-13T09:52:15.353Z,1022.78
2019-05-13T09:53:15.338Z,1022.91
2019-05-13T09:54:15.364Z,1022.84
2019-05-13T09:55:26.565Z,1022.80
2019-05-13T09:56:16.303Z,1022.73
2019-05-13T09:57:15.297Z,1022.79
2019-05-13T09:58:15.292Z,1022.79
2019-05-13T09:59:15.299Z,1022.80
2019-05-13T10:00:15.268Z,1022.61
2019-05-13T10:01:15.246Z,1022.74
2019-05-13T10:02:15.244Z,1022.80
2019-05-13T10:03:15.235Z,1022.80
2019-05-13T10:04:15.251Z,1022.80
2019-05-13T10:05:15.220Z,1022.69
2019-05-13T10:06:15.207Z,1022.74
2019-05-13T10:07:15.194Z,1022.70
2019-05-13T10:08:15.184Z,1022.75
2019-05-13T10:09:15.199Z,1022.65
2019-05-13T10:10:15.164Z,1022.76
2019-05-13T10:11:15.149Z,1022.77
2019-05-13T10:12:15.140Z,1022.73
2019-05-13T10:13:15.811Z,1022.73
2019-05-13T10:14:15.153Z,1022.75
2019-05-13T10:15:15.112Z,1022.72
2019-05-13T10:16:15.101Z,1022.76
2019-05-13T10:17:15.084Z,1022.72
2019-05-13T10:18:15.074Z,1022.70
2019-05-13T10:19:15.134Z,1022.76
2019-05-13T10:20:15.055Z,1022.75
2019-05-13T10:21:15.049Z,1022.63
2019-05-13T10:22:15.033Z,1022.72
2019-05-13T10:23:15.028Z,1022.73
2019-05-13T10:24:15.048Z,1022.67
2019-05-13T10:25:15.004Z,1022.58
2019-05-13T10:26:14.996Z,1022.67
2019-05-13T10:27:18.856Z,1022.72
2019-05-13T10:28:14.977Z,1022.71
2019-05-13T10:29:14.997Z,1022.68
2019-05-13T10:30:14.953Z,1022.61
2019-05-13T10:31:14.947Z,1022.60
2019-05-13T10:32:14.927Z,1022.66
2019-05-13T10:33:14.918Z,1022.66
2019-05-13T10:34:14.932Z,1022.61
2019-05-13T10:35:14.906Z,1022.61
2019-05-13T10:36:14.893Z,1022.48
2019-05-13T10:37:14.876Z,1022.45
2019-05-13T10:38:14.866Z,1022.49
2019-05-13T10:39:14.884Z,1022.55
2019-05-13T10:40:14.851Z,1022.58
2019-05-13T10:41:14.833Z,1022.48
2019-05-13T10:42:14.824Z,1022.51
2019-05-13T10:43:29.245Z,1022.51
2019-05-13T10:44:15.826Z,1022.45
2019-05-13T10:45:14.795Z,1022.51
2019-05-13T10:46:14.787Z,1022.53
2019-05-13T10:47:14.774Z,1022.58
2019-05-13T10:48:14.769Z,1022.59
2019-05-13T10:49:14.776Z,1022.54
2019-05-13T10:50:14.744Z,1022.49
2019-05-13T10:51:14.735Z,1022.48
2019-05-13T10:52:14.717Z,1022.43
2019-05-13T10:53:14.707Z,1022.46
2019-05-13T10:54:14.745Z,1022.49
2019-05-13T10:55:14.688Z,1022.53
2019-05-13T10:56:14.673Z,1022.52
2019-05-13T10:57:14.675Z,1022.51
2019-05-13T10:58:14.657Z,1022.46
2019-05-13T10:59:14.645Z,1022.39
2019-05-13T11:00:14.664Z,1022.38
2019-05-13T11:01:14.622Z,1022.47
2019-05-13T11:02:14.620Z,1022.52
2019-05-13T11:03:14.605Z,1022.52
2019-05-13T11:04:14.593Z,1022.41
2019-05-13T11:05:14.615Z,1022.30
2019-05-13T11:06:14.571Z,1022.41
2019-05-13T11:07:14.567Z,1022.44
2019-05-13T11:08:14.552Z,1022.40
2019-05-13T11:09:14.543Z,1022.32
2019-05-13T11:10:14.558Z,1022.34
2019-05-13T11:11:14.523Z,1022.35
2019-05-13T11:12:14.512Z,1022.32
2019-05-13T11:13:14.502Z,1022.43
2019-05-13T11:14:15.793Z,1022.34
2019-05-13T11:15:14.509Z,1022.29
2019-05-13T11:16:14.468Z,1022.29
2019-05-13T11:17:14.474Z,1022.35
2019-05-13T11:18:19.502Z,1022.31
2019-05-13T11:19:15.439Z,1022.27
2019-05-13T11:20:14.455Z,1022.28
2019-05-13T11:21:14.433Z,1022.35
2019-05-13T11:22:14.417Z,1022.23
2019-05-13T11:23:14.404Z,1022.20
2019-05-13T11:24:14.403Z,1022.26
2019-05-13T11:25:14.402Z,1022.22
2019-05-13T11:26:14.375Z,1022.19
2019-05-13T11:27:14.363Z,1022.20
2019-05-13T11:28:14.352Z,1022.18
2019-05-13T11:29:14.354Z,1022.15
2019-05-13T11:30:14.357Z,1022.20
2019-05-13T11:31:14.322Z,1022.14
2019-05-13T11:32:14.306Z,1022.04
2019-05-13T11:33:14.300Z,1021.94
2019-05-13T11:34:14.290Z,1022.05
2019-05-13T11:35:14.311Z,1022.03
2019-05-13T11:36:19.020Z,1021.98
2019-05-13T11:37:15.258Z,1021.96
2019-05-13T11:38:14.246Z,1022.08
2019-05-13T11:39:14.239Z,1022.13
2019-05-13T11:40:14.249Z,1022.13
2019-05-13T11:41:14.216Z,1022.16
2019-05-13T11:42:14.206Z,1022.06
2019-05-13T11:43:14.198Z,1022.05
2019-05-13T11:44:16.950Z,1022.05
2019-05-13T11:45:14.202Z,1022.01
2019-05-13T11:46:14.163Z,1022.04
2019-05-13T11:47:14.150Z,1022.10
2019-05-13T11:48:14.144Z,1022.07
2019-05-13T11:49:14.131Z,1022.17
2019-05-13T11:50:14.153Z,1022.11
2019-05-13T11:51:14.122Z,1022.06
2019-05-13T11:52:14.103Z,1022.01
2019-05-13T11:53:31.628Z,1021.95
2019-05-13T11:54:15.080Z,1022.00
2019-05-13T11:55:14.106Z,1021.94
2019-05-13T11:56:14.102Z,1021.90
2019-05-13T11:57:14.104Z,1021.94
2019-05-13T11:58:14.326Z,1021.92
2019-05-13T11:59:14.450Z,1021.97
2019-05-13T12:00:14.044Z,1021.87
2019-05-13T12:01:14.013Z,1021.76
2019-05-13T12:02:14.163Z,1021.92
2019-05-13T12:03:13.995Z,1021.86
2019-05-13T12:04:14.019Z,1021.95
2019-05-13T12:05:14.030Z,1021.96
2019-05-13T12:06:13.959Z,1021.84